Time;durP1;ratioP1;P1;durP2;ratioP2;P2;SDS_P1;SDS_P2;PMS_P1;PMS_P2;Temp;Humidity;BMP_temperature;BMP_pressure;BME280_temperature;BME280_humidity;BME280_pressure;Samples;Min_cycle;Max_cycle;Signal;HPM_P1;HPM_P2
2022/05/29 00:00:34;;;;;;;;;;;;;;;;;;4997521;28;19917;-61
2022/05/29 00:03:00;;;;;;;;;;;;;;;;;;4993748;28;20013;-60
2022/05/29 00:05:25;;;;;;;;;;;;;;;;;;4996235;28;19926;-61
2022/05/29 00:07:50;;;;;;;;;;;;;;;;;;4996781;28;19917;-61
2022/05/29 00:10:16;;;;;;;;;;;;;;;;;;4995284;28;20591;-62
2022/05/29 00:12:43;;;;;;;;;;;;;;;;;;4998745;28;19939;-59
2022/05/29 00:15:09;;;;;;;;;;;;;;;;;;5002153;28;20371;-62
2022/05/29 00:17:34;;;;;;;;;;;;;;;;;;4997388;28;19918;-61
2022/05/29 00:19:59;;;;;;;;;;;;;;;;;;4998031;28;20413;-61
2022/05/29 00:22:24;;;;;;;;;;;;;;;;;;5002251;28;20449;-62
2022/05/29 00:24:49;;;;;;;;;;;;;;;;;;4998744;28;19921;-61
2022/05/29 00:27:16;;;;;;;;;;;;;;;;;;4996953;28;19929;-62
2022/05/29 00:29:41;;;;;;;;;;;;;;;;;;4997175;28;20459;-61
2022/05/29 00:32:06;;;;;;;;;;;;;;;;;;5002584;28;19973;-62
2022/05/29 00:34:31;;;;;;;;;;;;;;;;;;4997344;28;19918;-60
2022/05/29 00:36:58;;;;;;;;;;;;;;;;;;4995556;28;19917;-61
2022/05/29 00:39:23;;;;;;;;;;;;;;;;;;4998586;28;19921;-61
2022/05/29 00:41:48;;;;;;;;;;;;;;;;;;4996824;28;19920;-61
2022/05/29 00:44:14;;;;;;;;;;;;;;;;;;5001726;28;19924;-60
2022/05/29 00:46:39;;;;;;;;;;;;;;;;;;4997311;28;19922;-60
2022/05/29 00:49:04;;;;;;;;;;;;;;;;;;4980046;28;19922;-60
2022/05/29 00:51:29;;;;;;;;;;;;;;;;;;4995638;28;20680;-60
2022/05/29 00:53:55;;;;;;;;;;;;;;;;;;4998223;28;20494;-61
2022/05/29 00:56:20;;;;;;;;;;;;;;;;;;4996153;28;20026;-61
2022/05/29 00:58:45;;;;;;;;;;;;;;;;;;4995554;28;20390;-62
2022/05/29 01:01:10;;;;;;;;;;;;;;;;;;4997097;28;20842;-62
2022/05/29 01:03:36;;;;;;;;;;;;;;;;;;4997596;28;20428;-61
2022/05/29 01:06:01;;;;;;;;;;;;;;;;;;4997796;28;19921;-61
2022/05/29 01:08:26;;;;;;;;;;;;;;;;;;4995650;28;19922;-61
2022/05/29 01:10:54;;;;;;;;;;;;;;;;;;4998181;28;19956;-61
2022/05/29 01:13:19;;;;;;;;;;;;;;;;;;4996374;28;20347;-61
2022/05/29 01:15:45;;;;;;;;;;;;;;;;;;4996883;28;20021;-61
2022/05/29 01:18:10;;;;;;;;;;;;;;;;;;4997064;28;19909;-61
2022/05/29 01:20:35;;;;;;;;;;;;;;;;;;4996111;28;20000;-61
2022/05/29 01:23:01;;;;;;;;;;;;;;;;;;4997216;28;19918;-61
2022/05/29 01:25:26;;;;;;;;;;;;;;;;;;4995050;28;20439;-61
2022/05/29 01:27:51;;;;;;;;;;;;;;;;;;5012442;28;20932;-61
2022/05/29 01:30:16;;;;;;;;;;;;;;;;;;4996619;28;20292;-61
2022/05/29 01:32:42;;;;;;;;;;;;;;;;;;4997466;28;20012;-61
2022/05/29 01:35:07;;;;;;;;;;;;;;;;;;4995753;28;19921;-61
2022/05/29 01:37:32;;;;;;;;;;;;;;;;;;4994401;28;19997;-61
2022/05/29 01:39:57;;;;;;;;;;;;;;;;;;4996832;28;19963;-61
2022/05/29 01:42:22;;;;;;;;;;;;;;;;;;4994681;28;20647;-61
2022/05/29 01:44:48;;;;;;;;;;;;;;;;;;4995729;28;20349;-61
2022/05/29 01:47:13;;;;;;;;;;;;;;;;;;4994751;28;19921;-61
2022/05/29 01:49:38;;;;;;;;;;;;;;;;;;4997421;28;19945;-59
2022/05/29 01:52:03;;;;;;;;;;;;;;;;;;4997386;28;20275;-59
2022/05/29 01:54:29;;;;;;;;;;;;;;;;;;4995931;28;20415;-60
2022/05/29 01:56:54;;;;;;;;;;;;;;;;;;4996151;28;19917;-59
2022/05/29 01:59:19;;;;;;;;;;;;;;;;;;4997334;28;20423;-59
2022/05/29 02:01:44;;;;;;;;;;;;;;;;;;4996431;28;20722;-60
2022/05/29 02:04:09;;;;;;;;;;;;;;;;;;4994161;28;19917;-60
2022/05/29 02:07:47;;;;;;;;;;;;;;;;;;4995067;28;20387;-60
2022/05/29 02:09:20;;;;;;;;;;;;;;;;;;5001163;28;19928;-59
2022/05/29 02:11:49;;;;;;;;;;;;;;;;;;4995909;28;20293;-60
2022/05/29 02:14:15;;;;;;;;;;;;;;;;;;4992963;28;19925;-60
2022/05/29 02:16:40;;;;;;;;;;;;;;;;;;4995073;28;19922;-60
2022/05/29 02:19:06;;;;;;;;;;;;;;;;;;4995708;28;19929;-59
2022/05/29 02:21:32;;;;;;;;;;;;;;;;;;4995052;28;19913;-62
2022/05/29 02:23:57;;;;;;;;;;;;;;;;;;5000964;28;19917;-61
2022/05/29 02:26:23;;;;;;;;;;;;;;;;;;4976586;28;19921;-62
2022/05/29 02:28:48;;;;;;;;;;;;;;;;;;4995714;28;19937;-61
2022/05/29 02:31:13;;;;;;;;;;;;;;;;;;4993492;28;19923;-61
2022/05/29 02:33:38;;;;;;;;;;;;;;;;;;4994790;28;19960;-61
2022/05/29 02:38:47;;;;;;;;;;;;;;;;;;4995566;28;20024;-61
2022/05/29 02:41:13;;;;;;;;;;;;;;;;;;4996731;28;20369;-61
2022/05/29 02:43:38;;;;;;;;;;;;;;;;;;4997028;28;19918;-61
2022/05/29 02:46:03;;;;;;;;;;;;;;;;;;5000419;28;20382;-61
2022/05/29 02:48:28;;;;;;;;;;;;;;;;;;4994873;28;20489;-61
2022/05/29 02:50:53;;;;;;;;;;;;;;;;;;4993713;28;20310;-61
2022/05/29 02:53:19;;;;;;;;;;;;;;;;;;4995956;28;19918;-61
2022/05/29 02:55:44;;;;;;;;;;;;;;;;;;4996995;28;19936;-60
2022/05/29 02:58:09;;;;;;;;;;;;;;;;;;4994013;28;19924;-60
2022/05/29 03:00:35;;;;;;;;;;;;;;;;;;4999905;28;19925;-60
2022/05/29 03:03:00;;;;;;;;;;;;;;;;;;4994542;28;20148;-60
2022/05/29 03:05:25;;;;;;;;;;;;;;;;;;4996936;28;19921;-62
2022/05/29 03:07:50;;;;;;;;;;;;;;;;;;4998865;28;19960;-60
2022/05/29 03:10:15;;;;;;;;;;;;;;;;;;4996123;28;19921;-60
2022/05/29 03:12:41;;;;;;;;;;;;;;;;;;4997224;28;19924;-61
2022/05/29 03:15:06;;;;;;;;;;;;;;;;;;4996951;28;20607;-61
2022/05/29 03:17:31;;;;;;;;;;;;;;;;;;5003538;28;20349;-61
2022/05/29 03:19:56;;;;;;;;;;;;;;;;;;4999145;28;19975;-60
2022/05/29 03:22:22;;;;;;;;;;;;;;;;;;4999775;28;19928;-61
2022/05/29 03:24:47;;;;;;;;;;;;;;;;;;4998801;28;19920;-61
2022/05/29 03:27:12;;;;;;;;;;;;;;;;;;5003608;28;19922;-61
2022/05/29 03:29:37;;;;;;;;;;;;;;;;;;4997230;28;19914;-61
2022/05/29 03:32:03;;;;;;;;;;;;;;;;;;4996770;28;19914;-61
2022/05/29 03:34:28;;;;;;;;;;;;;;;;;;4996842;28;19925;-61
2022/05/29 03:36:53;;;;;;;;;;;;;;;;;;4999434;28;19921;-60
2022/05/29 03:39:18;;;;;;;;;;;;;;;;;;4998389;28;20672;-61
2022/05/29 03:41:44;;;;;;;;;;;;;;;;;;5000005;28;19920;-61
2022/05/29 03:44:09;;;;;;;;;;;;;;;;;;4997885;28;19984;-61
2022/05/29 03:46:34;;;;;;;;;;;;;;;;;;4995448;28;19925;-61
2022/05/29 03:48:59;;;;;;;;;;;;;;;;;;4997006;28;20029;-61
2022/05/29 03:51:24;;;;;;;;;;;;;;;;;;5004211;28;20423;-61
2022/05/29 03:53:50;;;;;;;;;;;;;;;;;;4997777;28;19913;-61
2022/05/29 03:56:15;;;;;;;;;;;;;;;;;;4996988;28;19986;-61
2022/05/29 03:58:40;;;;;;;;;;;;;;;;;;5003580;28;20317;-61
2022/05/29 04:01:05;;;;;;;;;;;;;;;;;;4996011;28;20807;-61
2022/05/29 04:03:31;;;;;;;;;;;;;;;;;;4996896;28;19918;-61
2022/05/29 04:05:56;;;;;;;;;;;;;;;;;;4996394;28;19921;-61
2022/05/29 04:13:49;;;;;;;;;;;;;;;;;;4996638;28;20012;-61
2022/05/29 04:16:14;;;;;;;;;;;;;;;;;;4997055;28;20044;-61
2022/05/29 04:18:39;;;;;;;;;;;;;;;;;;4997745;28;20303;-61
2022/05/29 04:21:08;;;;;;;;;;;;;;;;;;5000236;28;20355;-61
2022/05/29 04:23:33;;;;;;;;;;;;;;;;;;4997512;28;20039;-61
2022/05/29 04:25:58;;;;;;;;;;;;;;;;;;4997788;28;20313;-61
2022/05/29 04:28:23;;;;;;;;;;;;;;;;;;4994832;28;19922;-61
2022/05/29 04:30:49;;;;;;;;;;;;;;;;;;4997532;28;19925;-61
2022/05/29 04:33:14;;;;;;;;;;;;;;;;;;4998992;28;19913;-61
2022/05/29 04:35:39;;;;;;;;;;;;;;;;;;4999532;28;19924;-61
2022/05/29 04:38:04;;;;;;;;;;;;;;;;;;4997289;28;19917;-61
2022/05/29 04:40:31;;;;;;;;;;;;;;;;;;4996300;28;19917;-60
2022/05/29 04:42:56;;;;;;;;;;;;;;;;;;4996682;28;19918;-61
2022/05/29 04:45:21;;;;;;;;;;;;;;;;;;4995971;28;19928;-61
2022/05/29 04:47:46;;;;;;;;;;;;;;;;;;4997444;28;19925;-61
2022/05/29 04:50:12;;;;;;;;;;;;;;;;;;5001849;28;19918;-60
2022/05/29 04:52:37;;;;;;;;;;;;;;;;;;4996945;28;20231;-61
2022/05/29 04:55:02;;;;;;;;;;;;;;;;;;5001641;28;19917;-61
2022/05/29 04:57:27;;;;;;;;;;;;;;;;;;4998638;28;19918;-61
2022/05/29 04:59:52;;;;;;;;;;;;;;;;;;4996987;28;19918;-61
2022/05/29 05:02:18;;;;;;;;;;;;;;;;;;4998937;28;19918;-61
2022/05/29 05:04:43;;;;;;;;;;;;;;;;;;4995180;28;20374;-61
2022/05/29 05:07:08;;;;;;;;;;;;;;;;;;4993558;28;19987;-61
2022/05/29 05:09:33;;;;;;;;;;;;;;;;;;4996467;28;20003;-61
2022/05/29 05:11:58;;;;;;;;;;;;;;;;;;4995732;28;22072;-61
2022/05/29 05:14:24;;;;;;;;;;;;;;;;;;4992529;28;20409;-61
2022/05/29 05:16:49;;;;;;;;;;;;;;;;;;4996537;28;20519;-61
2022/05/29 05:19:14;;;;;;;;;;;;;;;;;;4997753;28;20009;-61
2022/05/29 05:21:39;;;;;;;;;;;;;;;;;;4996633;28;20005;-61
2022/05/29 05:24:04;;;;;;;;;;;;;;;;;;4997497;28;20880;-61
2022/05/29 05:26:30;;;;;;;;;;;;;;;;;;4995359;28;19929;-61
2022/05/29 05:28:55;;;;;;;;;;;;;;;;;;4997704;28;19918;-61
2022/05/29 05:31:20;;;;;;;;;;;;;;;;;;4995329;28;19978;-61
2022/05/29 05:33:45;;;;;;;;;;;;;;;;;;4994763;28;19918;-61
2022/05/29 05:36:12;;;;;;;;;;;;;;;;;;4995312;28;19924;-61
2022/05/29 05:38:37;;;;;;;;;;;;;;;;;;4996863;28;20303;-61
2022/05/29 05:41:02;;;;;;;;;;;;;;;;;;4997890;28;20468;-61
2022/05/29 05:43:27;;;;;;;;;;;;;;;;;;4995648;28;19920;-61
2022/05/29 05:45:53;;;;;;;;;;;;;;;;;;5002247;28;19922;-61
2022/05/29 05:48:18;;;;;;;;;;;;;;;;;;4994272;28;19922;-61
2022/05/29 05:50:43;;;;;;;;;;;;;;;;;;4992377;28;20605;-61
2022/05/29 05:53:08;;;;;;;;;;;;;;;;;;4995535;28;19926;-61
2022/05/29 05:55:36;;;;;;;;;;;;;;;;;;4996910;28;19918;-61
2022/05/29 05:58:02;;;;;;;;;;;;;;;;;;4999851;28;19917;-61
2022/05/29 06:00:27;;;;;;;;;;;;;;;;;;4994890;28;20015;-61
2022/05/29 06:02:52;;;;;;;;;;;;;;;;;;4996651;28;20036;-60
2022/05/29 06:05:18;;;;;;;;;;;;;;;;;;5001611;28;19962;-61
2022/05/29 06:07:43;;;;;;;;;;;;;;;;;;4995355;28;19976;-61
2022/05/29 06:10:08;;;;;;;;;;;;;;;;;;4993477;28;19917;-62
2022/05/29 06:12:33;;;;;;;;;;;;;;;;;;4995334;28;19918;-61
2022/05/29 06:14:59;;;;;;;;;;;;;;;;;;4996302;28;19921;-60
2022/05/29 06:17:24;;;;;;;;;;;;;;;;;;4996142;28;20290;-60
2022/05/29 06:19:49;;;;;;;;;;;;;;;;;;4996224;28;20005;-60
2022/05/29 06:22:15;;;;;;;;;;;;;;;;;;4996509;28;19945;-60
2022/05/29 06:24:40;;;;;;;;;;;;;;;;;;4996156;28;19997;-60
2022/05/29 06:27:05;;;;;;;;;;;;;;;;;;4995030;28;19964;-60
2022/05/29 06:29:30;;;;;;;;;;;;;;;;;;4993249;28;19918;-60
2022/05/29 06:31:55;;;;;;;;;;;;;;;;;;4995748;28;20898;-61
2022/05/29 06:34:21;;;;;;;;;;;;;;;;;;4997348;28;20577;-61
2022/05/29 06:36:47;;;;;;;;;;;;;;;;;;4995104;28;19922;-61
2022/05/29 06:39:12;;;;;;;;;;;;;;;;;;4996640;28;19921;-61
2022/05/29 06:41:39;;;;;;;;;;;;;;;;;;5000621;28;20518;-60
2022/05/29 06:44:04;;;;;;;;;;;;;;;;;;5011646;28;19924;-61
2022/05/29 06:46:29;;;;;;;;;;;;;;;;;;4995306;28;19925;-62
2022/05/29 06:48:54;;;;;;;;;;;;;;;;;;4992429;28;19928;-61
2022/05/29 06:51:21;;;;;;;;;;;;;;;;;;4995029;28;19918;-62
2022/05/29 06:53:49;;;;;;;;;;;;;;;;;;4994489;28;20477;-62
2022/05/29 06:56:14;;;;;;;;;;;;;;;;;;4995676;28;19952;-61
2022/05/29 06:58:39;;;;;;;;;;;;;;;;;;4994463;28;20394;-61
2022/05/29 07:09:17;;;;;;;;;;;;;;;;;;4993402;28;19921;-61
2022/05/29 07:11:43;;;;;;;;;;;;;;;;;;4994582;28;19980;-61
2022/05/29 07:14:08;;;;;;;;;;;;;;;;;;4994233;28;19925;-61
2022/05/29 07:16:33;;;;;;;;;;;;;;;;;;4996034;28;20001;-62
2022/05/29 07:18:59;;;;;;;;;;;;;;;;;;4992699;28;19924;-61
2022/05/29 07:21:24;;;;;;;;;;;;;;;;;;4993660;28;19913;-61
2022/05/29 07:23:49;;;;;;;;;;;;;;;;;;4994865;28;19917;-61
2022/05/29 07:26:15;;;;;;;;;;;;;;;;;;4994327;28;19921;-62
2022/05/29 07:28:40;;;;;;;;;;;;;;;;;;4993655;28;20023;-61
2022/05/29 07:31:05;;;;;;;;;;;;;;;;;;5000274;28;19928;-62
2022/05/29 07:33:31;;;;;;;;;;;;;;;;;;4995904;28;19917;-62
2022/05/29 07:35:56;;;;;;;;;;;;;;;;;;4993623;28;20657;-62
2022/05/29 07:38:22;;;;;;;;;;;;;;;;;;4995078;28;19925;-64
2022/05/29 07:40:47;;;;;;;;;;;;;;;;;;4993255;28;19933;-61
2022/05/29 07:43:19;;;;;;;;;;;;;;;;;;4999668;28;19972;-62
2022/05/29 07:45:45;;;;;;;;;;;;;;;;;;4992814;28;19921;-62
2022/05/29 07:48:11;;;;;;;;;;;;;;;;;;4992247;28;20437;-62
2022/05/29 07:50:36;;;;;;;;;;;;;;;;;;4996557;28;19924;-62
2022/05/29 07:53:02;;;;;;;;;;;;;;;;;;4996772;28;19913;-62
2022/05/29 07:55:27;;;;;;;;;;;;;;;;;;4997616;28;19922;-59
2022/05/29 07:57:53;;;;;;;;;;;;;;;;;;4998436;28;19921;-60
2022/05/29 08:00:18;;;;;;;;;;;;;;;;;;4997677;28;19913;-61
2022/05/29 08:02:43;;;;;;;;;;;;;;;;;;4997312;28;19951;-61
2022/05/29 08:05:08;;;;;;;;;;;;;;;;;;4996208;28;19932;-61
2022/05/29 08:07:34;;;;;;;;;;;;;;;;;;4996979;28;19924;-62
2022/05/29 08:09:59;;;;;;;;;;;;;;;;;;4996905;28;19925;-62
2022/05/29 08:12:24;;;;;;;;;;;;;;;;;;4996758;28;19917;-61
2022/05/29 08:14:49;;;;;;;;;;;;;;;;;;4997235;28;19917;-62
2022/05/29 08:17:15;;;;;;;;;;;;;;;;;;4997066;28;19918;-62
2022/05/29 08:19:40;;;;;;;;;;;;;;;;;;4997151;28;19920;-61
2022/05/29 08:22:06;;;;;;;;;;;;;;;;;;5002550;28;19917;-61
2022/05/29 08:32:42;;;;;;;;;;;;;;;;;;4996847;28;20009;-62
2022/05/29 08:35:08;;;;;;;;;;;;;;;;;;4985197;28;20008;-62
2022/05/29 08:37:33;;;;;;;;;;;;;;;;;;4998187;28;19916;-61
2022/05/29 08:39:58;;;;;;;;;;;;;;;;;;5002592;28;20013;-62
2022/05/29 08:42:23;;;;;;;;;;;;;;;;;;4999551;28;19918;-63
2022/05/29 08:44:49;;;;;;;;;;;;;;;;;;4997583;28;19936;-62
2022/05/29 08:47:14;;;;;;;;;;;;;;;;;;5013364;28;19937;-62
2022/05/29 08:49:39;;;;;;;;;;;;;;;;;;4993805;28;19925;-61
2022/05/29 08:52:04;;;;;;;;;;;;;;;;;;4997672;28;20319;-61
2022/05/29 08:54:30;;;;;;;;;;;;;;;;;;4997494;28;19914;-61
2022/05/29 08:56:55;;;;;;;;;;;;;;;;;;4994573;28;19954;-61
2022/05/29 08:59:21;;;;;;;;;;;;;;;;;;4998483;28;20008;-62
2022/05/29 09:01:46;;;;;;;;;;;;;;;;;;4997664;28;19921;-62
2022/05/29 09:04:11;;;;;;;;;;;;;;;;;;4990965;28;19927;-62
2022/05/29 09:06:36;;;;;;;;;;;;;;;;;;4994865;28;19922;-62
2022/05/29 09:09:02;;;;;;;;;;;;;;;;;;4987050;28;19972;-62
2022/05/29 09:11:28;;;;;;;;;;;;;;;;;;4996177;28;19921;-60
2022/05/29 09:13:53;;;;;;;;;;;;;;;;;;4989862;28;19921;-62
2022/05/29 09:16:18;;;;;;;;;;;;;;;;;;4992742;28;20332;-62
2022/05/29 09:18:43;;;;;;;;;;;;;;;;;;4995174;28;19918;-61
2022/05/29 09:21:09;;;;;;;;;;;;;;;;;;4992425;28;19921;-61
2022/05/29 09:23:34;;;;;;;;;;;;;;;;;;4996144;28;19918;-62
2022/05/29 09:25:59;;;;;;;;;;;;;;;;;;4994732;28;19921;-62
2022/05/29 09:28:25;;;;;;;;;;;;;;;;;;4989929;28;19928;-62
2022/05/29 09:30:50;;;;;;;;;;;;;;;;;;5003449;28;19917;-61
2022/05/29 09:33:15;;;;;;;;;;;;;;;;;;4997380;28;19924;-62
2022/05/29 09:35:40;;;;;;;;;;;;;;;;;;4999508;28;19925;-61
2022/05/29 09:38:06;;;;;;;;;;;;;;;;;;4987701;28;20437;-62
2022/05/29 09:40:31;;;;;;;;;;;;;;;;;;4988283;28;19918;-62
2022/05/29 09:42:57;;;;;;;;;;;;;;;;;;4995184;28;19941;-62
2022/05/29 09:45:22;;;;;;;;;;;;;;;;;;5002972;28;19922;-61
2022/05/29 09:50:31;;;;;;;;;;;;;;;;;;4993564;28;20698;-61
2022/05/29 09:52:56;;;;;;;;;;;;;;;;;;4987493;28;19929;-62
2022/05/29 09:55:21;;;;;;;;;;;;;;;;;;4996443;28;20057;-60
2022/05/29 09:57:47;;;;;;;;;;;;;;;;;;4990783;28;19928;-60
2022/05/29 10:00:12;;;;;;;;;;;;;;;;;;4989745;28;19921;-60
2022/05/29 10:02:38;;;;;;;;;;;;;;;;;;4995561;28;19922;-60
2022/05/29 10:05:03;;;;;;;;;;;;;;;;;;4986892;28;19964;-60
2022/05/29 10:07:28;;;;;;;;;;;;;;;;;;4993973;28;20008;-61
2022/05/29 10:09:53;;;;;;;;;;;;;;;;;;4990037;28;19964;-60
2022/05/29 10:12:18;;;;;;;;;;;;;;;;;;4983845;28;19973;-62
2022/05/29 10:14:44;;;;;;;;;;;;;;;;;;4995831;28;19921;-60
2022/05/29 10:17:09;;;;;;;;;;;;;;;;;;4987898;28;19927;-60
2022/05/29 10:19:34;;;;;;;;;;;;;;;;;;4992294;28;20283;-60
2022/05/29 10:21:59;;;;;;;;;;;;;;;;;;4991002;28;19990;-61
2022/05/29 10:24:25;;;;;;;;;;;;;;;;;;4988974;28;19920;-60
2022/05/29 10:26:50;;;;;;;;;;;;;;;;;;4992729;28;20075;-61
2022/05/29 10:29:15;;;;;;;;;;;;;;;;;;4988672;28;20885;-61
2022/05/29 10:31:41;;;;;;;;;;;;;;;;;;4993287;28;19991;-60
2022/05/29 10:34:06;;;;;;;;;;;;;;;;;;4991713;28;19928;-61
2022/05/29 10:36:31;;;;;;;;;;;;;;;;;;4989947;28;19924;-61
2022/05/29 10:38:56;;;;;;;;;;;;;;;;;;4994039;28;19932;-61
2022/05/29 10:41:22;;;;;;;;;;;;;;;;;;4989191;28;20370;-61
2022/05/29 10:43:47;;;;;;;;;;;;;;;;;;4995421;28;19925;-61
2022/05/29 10:46:12;;;;;;;;;;;;;;;;;;4988497;28;20965;-61
2022/05/29 10:48:38;;;;;;;;;;;;;;;;;;4994229;28;19926;-61
2022/05/29 10:51:03;;;;;;;;;;;;;;;;;;4992155;28;20282;-62
2022/05/29 10:53:28;;;;;;;;;;;;;;;;;;4987487;28;20607;-61
2022/05/29 10:55:53;;;;;;;;;;;;;;;;;;4993318;28;20585;-61
2022/05/29 10:58:18;;;;;;;;;;;;;;;;;;4986502;28;20286;-60
2022/05/29 11:00:44;;;;;;;;;;;;;;;;;;4987084;28;20970;-60
2022/05/29 11:03:18;;;;;;;;;;;;;;;;;;4996252;28;19932;-61
2022/05/29 11:05:43;;;;;;;;;;;;;;;;;;4987113;28;19922;-61
2022/05/29 11:08:09;;;;;;;;;;;;;;;;;;4991587;28;19922;-60
2022/05/29 11:10:34;;;;;;;;;;;;;;;;;;4986252;28;19953;-60
2022/05/29 11:12:59;;;;;;;;;;;;;;;;;;4986914;28;20011;-60
2022/05/29 11:15:24;;;;;;;;;;;;;;;;;;4991780;28;19950;-60
2022/05/29 11:17:51;;;;;;;;;;;;;;;;;;4987658;28;20045;-60
2022/05/29 11:20:17;;;;;;;;;;;;;;;;;;4998264;28;20402;-60
2022/05/29 11:22:42;;;;;;;;;;;;;;;;;;4986552;28;20366;-60
2022/05/29 11:25:07;;;;;;;;;;;;;;;;;;4986754;28;19967;-61
2022/05/29 11:27:32;;;;;;;;;;;;;;;;;;4996360;28;19917;-60
2022/05/29 11:29:58;;;;;;;;;;;;;;;;;;4991482;28;20012;-61
2022/05/29 11:32:23;;;;;;;;;;;;;;;;;;4995264;28;20078;-60
2022/05/29 11:34:48;;;;;;;;;;;;;;;;;;4992220;28;19921;-60
2022/05/29 11:37:13;;;;;;;;;;;;;;;;;;4992484;28;19924;-60
2022/05/29 11:39:39;;;;;;;;;;;;;;;;;;4994517;28;19964;-60
2022/05/29 11:42:06;;;;;;;;;;;;;;;;;;4992594;28;19917;-61
2022/05/29 11:44:31;;;;;;;;;;;;;;;;;;4999260;28;20004;-62
2022/05/29 11:52:24;;;;;;;;;;;;;;;;;;4996500;28;20040;-59
2022/05/29 11:54:49;;;;;;;;;;;;;;;;;;4992718;28;20100;-60
2022/05/29 11:57:15;;;;;;;;;;;;;;;;;;4992072;28;19953;-60
2022/05/29 11:59:40;;;;;;;;;;;;;;;;;;4998985;28;20263;-60
2022/05/29 12:02:05;;;;;;;;;;;;;;;;;;4996755;28;20333;-64
2022/05/29 12:04:30;;;;;;;;;;;;;;;;;;4996714;28;20370;-61
2022/05/29 12:06:55;;;;;;;;;;;;;;;;;;4990653;28;19925;-63
2022/05/29 12:09:21;;;;;;;;;;;;;;;;;;4991986;28;20636;-67
2022/05/29 12:11:46;;;;;;;;;;;;;;;;;;4997890;28;19941;-65
2022/05/29 12:14:11;;;;;;;;;;;;;;;;;;4991937;28;19917;-65
2022/05/29 12:16:36;;;;;;;;;;;;;;;;;;4997001;28;19921;-64
2022/05/29 12:19:01;;;;;;;;;;;;;;;;;;4988436;28;19914;-64
2022/05/29 12:21:27;;;;;;;;;;;;;;;;;;4993382;28;20923;-64
2022/05/29 12:23:52;;;;;;;;;;;;;;;;;;4992706;28;20338;-66
2022/05/29 12:26:17;;;;;;;;;;;;;;;;;;4992407;28;19929;-67
2022/05/29 12:28:43;;;;;;;;;;;;;;;;;;4996103;28;19913;-65
2022/05/29 12:31:08;;;;;;;;;;;;;;;;;;4993875;28;19956;-69
2022/05/29 12:33:33;;;;;;;;;;;;;;;;;;4989297;28;20008;-66
2022/05/29 12:35:58;;;;;;;;;;;;;;;;;;4996044;28;19918;-70
2022/05/29 12:38:23;;;;;;;;;;;;;;;;;;4990561;28;20020;-68
2022/05/29 12:40:49;;;;;;;;;;;;;;;;;;4996755;28;19918;-68
2022/05/29 12:43:14;;;;;;;;;;;;;;;;;;4990860;28;19925;-71
2022/05/29 12:45:39;;;;;;;;;;;;;;;;;;4991552;28;20350;-68
2022/05/29 12:48:04;;;;;;;;;;;;;;;;;;4993202;28;19987;-73
2022/05/29 12:50:30;;;;;;;;;;;;;;;;;;4991751;28;19917;-69
2022/05/29 12:52:56;;;;;;;;;;;;;;;;;;4997847;28;19917;-71
2022/05/29 12:55:21;;;;;;;;;;;;;;;;;;4988869;28;20342;-69
2022/05/29 12:57:46;;;;;;;;;;;;;;;;;;4990762;28;20281;-72
2022/05/29 13:00:11;;;;;;;;;;;;;;;;;;4999292;28;19914;-68
2022/05/29 13:02:36;;;;;;;;;;;;;;;;;;4990948;28;20397;-71
2022/05/29 13:05:02;;;;;;;;;;;;;;;;;;4995781;28;19917;-70
2022/05/29 13:07:27;;;;;;;;;;;;;;;;;;4989101;28;19921;-70
2022/05/29 13:09:52;;;;;;;;;;;;;;;;;;4991790;28;20421;-70
2022/05/29 13:12:17;;;;;;;;;;;;;;;;;;4994681;28;19918;-70
2022/05/29 13:14:42;;;;;;;;;;;;;;;;;;4991866;28;20612;-70
2022/05/29 13:17:08;;;;;;;;;;;;;;;;;;4998623;28;21230;-67
2022/05/29 13:19:33;;;;;;;;;;;;;;;;;;4988241;28;19917;-70
2022/05/29 13:22:02;;;;;;;;;;;;;;;;;;4989084;28;20022;-71
2022/05/29 13:24:27;;;;;;;;;;;;;;;;;;4994185;28;19925;-69
2022/05/29 13:26:52;;;;;;;;;;;;;;;;;;4994010;28;20770;-69
2022/05/29 13:29:18;;;;;;;;;;;;;;;;;;4995942;28;19922;-69
2022/05/29 13:31:43;;;;;;;;;;;;;;;;;;4989611;28;20796;-71
2022/05/29 13:34:08;;;;;;;;;;;;;;;;;;4988619;28;20012;-68
2022/05/29 13:36:33;;;;;;;;;;;;;;;;;;4993576;28;19913;-73
2022/05/29 13:38:58;;;;;;;;;;;;;;;;;;5005167;28;20560;-71
2022/05/29 13:41:24;;;;;;;;;;;;;;;;;;4995634;28;20325;-70
2022/05/29 13:43:49;;;;;;;;;;;;;;;;;;4987926;28;20370;-73
2022/05/29 13:46:14;;;;;;;;;;;;;;;;;;4989421;28;20822;-69
2022/05/29 13:48:39;;;;;;;;;;;;;;;;;;4994400;28;20587;-72
2022/05/29 13:51:05;;;;;;;;;;;;;;;;;;4990184;28;19939;-69
2022/05/29 13:53:30;;;;;;;;;;;;;;;;;;4994929;28;20055;-70
2022/05/29 13:55:55;;;;;;;;;;;;;;;;;;4990613;28;20247;-68
2022/05/29 14:04:04;;;;;;;;;;;;;;;;;;4989783;28;20008;-73
2022/05/29 14:06:29;;;;;;;;;;;;;;;;;;4989346;28;20729;-69
2022/05/29 14:08:55;;;;;;;;;;;;;;;;;;4994827;28;19992;-70
2022/05/29 14:11:20;;;;;;;;;;;;;;;;;;4989438;28;20031;-71
2022/05/29 14:13:46;;;;;;;;;;;;;;;;;;4995299;28;20698;-72
2022/05/29 14:16:11;;;;;;;;;;;;;;;;;;4995277;28;19914;-71
2022/05/29 14:18:36;;;;;;;;;;;;;;;;;;4989950;28;19918;-73
2022/05/29 14:21:02;;;;;;;;;;;;;;;;;;4992706;28;20299;-71
2022/05/29 14:23:27;;;;;;;;;;;;;;;;;;4989951;28;20527;-72
2022/05/29 14:25:53;;;;;;;;;;;;;;;;;;4994828;28;19972;-72
2022/05/29 14:28:20;;;;;;;;;;;;;;;;;;4988797;28;19917;-71
2022/05/29 14:30:45;;;;;;;;;;;;;;;;;;4989979;28;19921;-72
2022/05/29 14:33:10;;;;;;;;;;;;;;;;;;4993018;28;19917;-71
2022/05/29 14:35:36;;;;;;;;;;;;;;;;;;4987015;28;19918;-72
2022/05/29 14:38:01;;;;;;;;;;;;;;;;;;4993393;28;19926;-72
2022/05/29 14:40:26;;;;;;;;;;;;;;;;;;4990006;28;19988;-71
2022/05/29 14:42:54;;;;;;;;;;;;;;;;;;4987946;28;19968;-71
2022/05/29 14:45:19;;;;;;;;;;;;;;;;;;4991610;28;19922;-71
2022/05/29 14:47:44;;;;;;;;;;;;;;;;;;4988929;28;19922;-69
2022/05/29 14:50:10;;;;;;;;;;;;;;;;;;4994112;28;20040;-71
2022/05/29 14:52:35;;;;;;;;;;;;;;;;;;4988349;28;19973;-71
2022/05/29 14:55:00;;;;;;;;;;;;;;;;;;4988771;28;19918;-68
2022/05/29 14:57:27;;;;;;;;;;;;;;;;;;4994455;28;19940;-68
2022/05/29 14:59:52;;;;;;;;;;;;;;;;;;4987984;28;19922;-68
2022/05/29 15:02:17;;;;;;;;;;;;;;;;;;4996446;28;19918;-70
2022/05/29 15:04:42;;;;;;;;;;;;;;;;;;4989011;28;19917;-67
2022/05/29 15:12:35;;;;;;;;;;;;;;;;;;4987696;28;20401;-68
2022/05/29 15:15:01;;;;;;;;;;;;;;;;;;4986092;28;19921;-66
2022/05/29 15:17:27;;;;;;;;;;;;;;;;;;4993587;28;20321;-67
2022/05/29 15:24:08;;;;;;;;;;;;;;;;;;4986591;28;19917;-67
2022/05/29 15:25:39;;;;;;;;;;;;;;;;;;4992381;28;20477;-66
2022/05/29 15:28:05;;;;;;;;;;;;;;;;;;4987867;28;20048;-66
2022/05/29 15:30:30;;;;;;;;;;;;;;;;;;4996336;28;19917;-66
2022/05/29 15:32:56;;;;;;;;;;;;;;;;;;4986639;28;19979;-65
2022/05/29 15:35:21;;;;;;;;;;;;;;;;;;4987781;28;19925;-66
2022/05/29 15:37:46;;;;;;;;;;;;;;;;;;4989946;28;19929;-67
2022/05/29 15:40:11;;;;;;;;;;;;;;;;;;4989641;28;19917;-64
2022/05/29 15:42:37;;;;;;;;;;;;;;;;;;4990844;28;19918;-66
2022/05/29 15:45:02;;;;;;;;;;;;;;;;;;4987461;28;19918;-66
2022/05/29 15:47:27;;;;;;;;;;;;;;;;;;4986699;28;19933;-66
2022/05/29 15:49:54;;;;;;;;;;;;;;;;;;4992476;28;19918;-68
2022/05/29 15:52:19;;;;;;;;;;;;;;;;;;4988613;28;20440;-65
2022/05/29 15:54:44;;;;;;;;;;;;;;;;;;4990646;28;20575;-66
2022/05/29 15:57:10;;;;;;;;;;;;;;;;;;4984934;28;20611;-66
2022/05/29 15:59:35;;;;;;;;;;;;;;;;;;4987035;28;19918;-68
2022/05/29 16:02:00;;;;;;;;;;;;;;;;;;4991895;28;19925;-69
2022/05/29 16:04:25;;;;;;;;;;;;;;;;;;4986115;28;20390;-68
2022/05/29 16:06:54;;;;;;;;;;;;;;;;;;4992943;28;20017;-68
2022/05/29 16:09:19;;;;;;;;;;;;;;;;;;4988859;28;19921;-68
2022/05/29 16:11:44;;;;;;;;;;;;;;;;;;4988050;28;19917;-66
2022/05/29 16:14:10;;;;;;;;;;;;;;;;;;4995944;28;19918;-67
2022/05/29 16:16:41;;;;;;;;;;;;;;;;;;4990719;28;19913;-67
2022/05/29 16:19:08;;;;;;;;;;;;;;;;;;4994845;28;19917;-63
2022/05/29 16:21:33;;;;;;;;;;;;;;;;;;4992281;28;20020;-67
2022/05/29 16:23:59;;;;;;;;;;;;;;;;;;4989263;28;20013;-66
2022/05/29 16:26:24;;;;;;;;;;;;;;;;;;4994297;28;19914;-66
2022/05/29 16:28:51;;;;;;;;;;;;;;;;;;4993609;28;19936;-67
2022/05/29 16:31:16;;;;;;;;;;;;;;;;;;4993033;28;19977;-63
2022/05/29 16:33:42;;;;;;;;;;;;;;;;;;4995523;28;19925;-65
2022/05/29 16:36:07;;;;;;;;;;;;;;;;;;4988405;28;20764;-65
2022/05/29 16:49:28;;;;;;;;;;;;;;;;;;4986555;28;19926;-67
2022/05/29 16:51:53;;;;;;;;;;;;;;;;;;4989715;28;19921;-68
2022/05/29 16:54:18;;;;;;;;;;;;;;;;;;4995957;28;19921;-69
2022/05/29 16:56:43;;;;;;;;;;;;;;;;;;4992699;28;20646;-67
2022/05/29 16:59:09;;;;;;;;;;;;;;;;;;4999627;28;20644;-66
2022/05/29 17:01:34;;;;;;;;;;;;;;;;;;4994677;28;19924;-66
2022/05/29 17:03:59;;;;;;;;;;;;;;;;;;4992049;28;19925;-66
2022/05/29 17:06:24;;;;;;;;;;;;;;;;;;4982435;28;19925;-66
2022/05/29 17:08:50;;;;;;;;;;;;;;;;;;4991321;28;19922;-67
2022/05/29 17:11:15;;;;;;;;;;;;;;;;;;4992850;28;20725;-66
2022/05/29 17:13:40;;;;;;;;;;;;;;;;;;4977905;28;20393;-66
2022/05/29 17:16:06;;;;;;;;;;;;;;;;;;4989048;28;20290;-65
2022/05/29 17:18:31;;;;;;;;;;;;;;;;;;4993666;28;21520;-66
2022/05/29 17:20:56;;;;;;;;;;;;;;;;;;4987995;28;20017;-65
2022/05/29 17:23:21;;;;;;;;;;;;;;;;;;4993648;28;19917;-67
2022/05/29 17:25:46;;;;;;;;;;;;;;;;;;4985617;28;19976;-66
2022/05/29 17:28:12;;;;;;;;;;;;;;;;;;4988300;28;19992;-66
2022/05/29 17:30:37;;;;;;;;;;;;;;;;;;4992736;28;19925;-65